Nuremberg Airport EDDN

Flugplatz Daten

Name: Nuremberg Airport

Ident: EDDN

Lat: 49,49869919

Long: 11,06690025

Platzhöhe: 1046 ft

IataCode: NUE

City: Nuremberg

Metar

2021/10/25 23:50
EDDN 252350Z 11008KT CAVOK 03/03 Q1021

Taf

2021/10/25 00:27
TAF EDDN 252300Z 2600/2624 12005KT CAVOK
TEMPO 2605/2609 4000 -RADZ BKN010
BECMG 2608/2611 25005KT
BECMG 2618/2620 16004KT
Gewünschte Webcam nicht vorhanden? Dann fügen Sie eine hinzu. Sie wird dann so schnell wie möglich freigeschaltet
Url: Title: